sensor_id;sensor_type;location;lat;lon;timestamp;temperature;humidity
68189;DHT22;66299;47.514;19.218;2023-02-01T00:01:41;2.68;92.87
68189;DHT22;66299;47.514;19.218;2023-02-01T00:04:12;2.68;92.83
68189;DHT22;66299;47.514;19.218;2023-02-01T00:06:43;2.64;93.16
68189;DHT22;66299;47.514;19.218;2023-02-01T00:09:11;2.71;92.87
68189;DHT22;66299;47.514;19.218;2023-02-01T00:11:40;2.74;92.53
68189;DHT22;66299;47.514;19.218;2023-02-01T00:14:09;2.73;92.54
68189;DHT22;66299;47.514;19.218;2023-02-01T00:16:37;2.73;92.25
68189;DHT22;66299;47.514;19.218;2023-02-01T00:19:08;2.74;92.23
68189;DHT22;66299;47.514;19.218;2023-02-01T00:21:38;2.78;91.86
68189;DHT22;66299;47.514;19.218;2023-02-01T00:24:09;2.77;91.72
68189;DHT22;66299;47.514;19.218;2023-02-01T00:26:41;2.81;91.15
68189;DHT22;66299;47.514;19.218;2023-02-01T00:29:11;2.83;91.46
68189;DHT22;66299;47.514;19.218;2023-02-01T00:31:40;2.84;91.54
68189;DHT22;66299;47.514;19.218;2023-02-01T00:34:12;2.81;91.85
68189;DHT22;66299;47.514;19.218;2023-02-01T00:36:41;2.87;91.05
68189;DHT22;66299;47.514;19.218;2023-02-01T00:39:14;2.88;91.13
68189;DHT22;66299;47.514;19.218;2023-02-01T00:41:43;2.84;91.32
68189;DHT22;66299;47.514;19.218;2023-02-01T00:44:12;2.91;90.91
68189;DHT22;66299;47.514;19.218;2023-02-01T00:46:40;2.94;90.50
68189;DHT22;66299;47.514;19.218;2023-02-01T00:49:09;2.95;90.49
68189;DHT22;66299;47.514;19.218;2023-02-01T00:51:37;2.91;91.05
68189;DHT22;66299;47.514;19.218;2023-02-01T00:54:06;2.87;91.03
68189;DHT22;66299;47.514;19.218;2023-02-01T00:56:35;2.95;90.29
68189;DHT22;66299;47.514;19.218;2023-02-01T00:59:04;2.88;90.64
68189;DHT22;66299;47.514;19.218;2023-02-01T01:01:34;2.97;90.23
68189;DHT22;66299;47.514;19.218;2023-02-01T01:04:05;2.95;90.25
68189;DHT22;66299;47.514;19.218;2023-02-01T01:06:36;2.89;90.66
68189;DHT22;66299;47.514;19.218;2023-02-01T01:09:08;2.92;90.84
68189;DHT22;66299;47.514;19.218;2023-02-01T01:11:38;2.91;90.65
68189;DHT22;66299;47.514;19.218;2023-02-01T01:14:07;2.97;90.35
68189;DHT22;66299;47.514;19.218;2023-02-01T01:16:36;2.92;90.28
68189;DHT22;66299;47.514;19.218;2023-02-01T01:19:07;2.94;90.23
68189;DHT22;66299;47.514;19.218;2023-02-01T01:21:35;2.84;90.20
68189;DHT22;66299;47.514;19.218;2023-02-01T01:24:05;2.88;89.91
68189;DHT22;66299;47.514;19.218;2023-02-01T01:26:34;2.95;89.38
68189;DHT22;66299;47.514;19.218;2023-02-01T01:29:04;3.01;89.00
68189;DHT22;66299;47.514;19.218;2023-02-01T01:31:32;3.01;89.16
68189;DHT22;66299;47.514;19.218;2023-02-01T01:34:01;3.39;87.36
68189;DHT22;66299;47.514;19.218;2023-02-01T01:36:30;3.20;88.44
68189;DHT22;66299;47.514;19.218;2023-02-01T01:38:58;3.18;88.64
68189;DHT22;66299;47.514;19.218;2023-02-01T01:41:31;3.09;88.93
68189;DHT22;66299;47.514;19.218;2023-02-01T01:44:01;3.12;88.83
68189;DHT22;66299;47.514;19.218;2023-02-01T01:46:34;3.13;88.51
68189;DHT22;66299;47.514;19.218;2023-02-01T01:49:09;3.12;88.70
68189;DHT22;66299;47.514;19.218;2023-02-01T01:51:45;3.16;88.81
68189;DHT22;66299;47.514;19.218;2023-02-01T01:54:18;3.11;88.73
68189;DHT22;66299;47.514;19.218;2023-02-01T01:56:52;3.09;88.52
68189;DHT22;66299;47.514;19.218;2023-02-01T01:59:22;3.01;88.74
68189;DHT22;66299;47.514;19.218;2023-02-01T02:01:54;2.85;89.46
68189;DHT22;66299;47.514;19.218;2023-02-01T02:04:24;2.88;89.15
68189;DHT22;66299;47.514;19.218;2023-02-01T02:06:57;2.70;89.77
68189;DHT22;66299;47.514;19.218;2023-02-01T02:09:30;2.51;90.39
68189;DHT22;66299;47.514;19.218;2023-02-01T02:11:59;2.57;90.11
68189;DHT22;66299;47.514;19.218;2023-02-01T02:14:28;2.68;89.38
68189;DHT22;66299;47.514;19.218;2023-02-01T02:17:07;2.77;88.76
68189;DHT22;66299;47.514;19.218;2023-02-01T02:19:53;2.73;89.06
68189;DHT22;66299;47.514;19.218;2023-02-01T02:22:48;2.84;88.64
68189;DHT22;66299;47.514;19.218;2023-02-01T02:25:47;2.85;88.26
68189;DHT22;66299;47.514;19.218;2023-02-01T02:29:00;3.29;86.38
68189;DHT22;66299;47.514;19.218;2023-02-01T02:31:54;3.40;85.50
68189;DHT22;66299;47.514;19.218;2023-02-01T02:34:30;3.44;85.60
68189;DHT22;66299;47.514;19.218;2023-02-01T02:37:10;3.60;84.65
68189;DHT22;66299;47.514;19.218;2023-02-01T02:39:47;3.49;84.95
68189;DHT22;66299;47.514;19.218;2023-02-01T02:42:27;3.49;85.25
68189;DHT22;66299;47.514;19.218;2023-02-01T02:45:20;3.59;84.57
68189;DHT22;66299;47.514;19.218;2023-02-01T02:48:12;3.69;84.31
68189;DHT22;66299;47.514;19.218;2023-02-01T02:50:49;3.87;83.35
68189;DHT22;66299;47.514;19.218;2023-02-01T02:53:40;3.66;84.10
68189;DHT22;66299;47.514;19.218;2023-02-01T02:56:30;3.81;83.54
68189;DHT22;66299;47.514;19.218;2023-02-01T02:59:21;3.80;83.51
68189;DHT22;66299;47.514;19.218;2023-02-01T03:02:08;3.90;83.19
68189;DHT22;66299;47.514;19.218;2023-02-01T03:04:55;3.98;82.67
68189;DHT22;66299;47.514;19.218;2023-02-01T03:07:48;3.97;82.83
68189;DHT22;66299;47.514;19.218;2023-02-01T03:10:24;3.97;82.80
68189;DHT22;66299;47.514;19.218;2023-02-01T03:12:54;3.90;83.15
68189;DHT22;66299;47.514;19.218;2023-02-01T03:15:32;3.84;83.15
68189;DHT22;66299;47.514;19.218;2023-02-01T03:18:04;3.91;83.04
68189;DHT22;66299;47.514;19.218;2023-02-01T03:20:36;4.01;82.49
68189;DHT22;66299;47.514;19.218;2023-02-01T03:23:09;3.75;83.59
68189;DHT22;66299;47.514;19.218;2023-02-01T03:25:39;3.99;82.92
68189;DHT22;66299;47.514;19.218;2023-02-01T03:28:08;3.91;82.87
68189;DHT22;66299;47.514;19.218;2023-02-01T03:30:42;4.28;81.79
68189;DHT22;66299;47.514;19.218;2023-02-01T03:33:16;4.08;82.16
68189;DHT22;66299;47.514;19.218;2023-02-01T03:35:59;3.91;82.73
68189;DHT22;66299;47.514;19.218;2023-02-01T03:38:33;4.11;82.46
68189;DHT22;66299;47.514;19.218;2023-02-01T03:41:11;4.02;82.40
68189;DHT22;66299;47.514;19.218;2023-02-01T03:43:49;3.88;83.05
68189;DHT22;66299;47.514;19.218;2023-02-01T03:46:25;3.67;84.11
68189;DHT22;66299;47.514;19.218;2023-02-01T03:48:56;3.71;83.83
68189;DHT22;66299;47.514;19.218;2023-02-01T03:51:25;3.64;84.17
68189;DHT22;66299;47.514;19.218;2023-02-01T03:53:57;3.64;84.25
68189;DHT22;66299;47.514;19.218;2023-02-01T03:56:27;3.75;83.82
68189;DHT22;66299;47.514;19.218;2023-02-01T03:58:57;3.71;84.07
68189;DHT22;66299;47.514;19.218;2023-02-01T04:01:28;3.73;84.01
68189;DHT22;66299;47.514;19.218;2023-02-01T04:03:58;3.78;83.36
68189;DHT22;66299;47.514;19.218;2023-02-01T04:06:28;3.75;83.83
68189;DHT22;66299;47.514;19.218;2023-02-01T04:08:58;3.74;83.68
68189;DHT22;66299;47.514;19.218;2023-02-01T04:11:27;3.59;84.41
68189;DHT22;66299;47.514;19.218;2023-02-01T04:13:56;3.62;84.33
68189;DHT22;66299;47.514;19.218;2023-02-01T04:16:25;3.91;83.07
68189;DHT22;66299;47.514;19.218;2023-02-01T04:18:54;3.85;83.23
68189;DHT22;66299;47.514;19.218;2023-02-01T04:21:22;3.84;83.39
68189;DHT22;66299;47.514;19.218;2023-02-01T04:23:51;3.84;83.22
68189;DHT22;66299;47.514;19.218;2023-02-01T04:26:21;3.80;83.45
68189;DHT22;66299;47.514;19.218;2023-02-01T04:28:49;3.70;83.78
68189;DHT22;66299;47.514;19.218;2023-02-01T04:31:21;3.77;83.23
68189;DHT22;66299;47.514;19.218;2023-02-01T04:33:53;3.69;83.64
68189;DHT22;66299;47.514;19.218;2023-02-01T04:36:22;3.85;83.34
68189;DHT22;66299;47.514;19.218;2023-02-01T04:38:51;3.81;83.38
68189;DHT22;66299;47.514;19.218;2023-02-01T04:41:21;3.81;83.26
68189;DHT22;66299;47.514;19.218;2023-02-01T04:43:50;3.75;83.43
68189;DHT22;66299;47.514;19.218;2023-02-01T04:46:19;3.73;83.62
68189;DHT22;66299;47.514;19.218;2023-02-01T04:48:48;3.74;83.41
68189;DHT22;66299;47.514;19.218;2023-02-01T04:51:19;3.78;83.23
68189;DHT22;66299;47.514;19.218;2023-02-01T04:53:47;3.81;83.02
68189;DHT22;66299;47.514;19.218;2023-02-01T04:56:18;3.69;83.34
68189;DHT22;66299;47.514;19.218;2023-02-01T04:58:50;3.80;83.05
68189;DHT22;66299;47.514;19.218;2023-02-01T05:01:19;3.78;83.27
68189;DHT22;66299;47.514;19.218;2023-02-01T05:03:48;3.69;83.57
68189;DHT22;66299;47.514;19.218;2023-02-01T05:06:16;3.63;83.77
68189;DHT22;66299;47.514;19.218;2023-02-01T05:08:44;3.66;83.56
68189;DHT22;66299;47.514;19.218;2023-02-01T05:11:13;3.85;82.65
68189;DHT22;66299;47.514;19.218;2023-02-01T05:13:57;3.88;82.31
68189;DHT22;66299;47.514;19.218;2023-02-01T05:16:29;3.73;83.22
68189;DHT22;66299;47.514;19.218;2023-02-01T05:18:58;3.60;83.72
68189;DHT22;66299;47.514;19.218;2023-02-01T05:21:28;3.60;84.25
68189;DHT22;66299;47.514;19.218;2023-02-01T05:23:57;3.49;84.09
68189;DHT22;66299;47.514;19.218;2023-02-01T05:26:41;3.78;82.72
68189;DHT22;66299;47.514;19.218;2023-02-01T05:29:11;3.71;82.49
68189;DHT22;66299;47.514;19.218;2023-02-01T05:31:44;3.97;81.38
68189;DHT22;66299;47.514;19.218;2023-02-01T05:34:13;3.88;81.73
68189;DHT22;66299;47.514;19.218;2023-02-01T05:36:42;4.01;80.75
68189;DHT22;66299;47.514;19.218;2023-02-01T05:39:11;4.01;80.52
68189;DHT22;66299;47.514;19.218;2023-02-01T05:41:42;4.04;80.28
68189;DHT22;66299;47.514;19.218;2023-02-01T05:44:12;4.19;79.66
68189;DHT22;66299;47.514;19.218;2023-02-01T05:46:41;4.14;79.42
68189;DHT22;66299;47.514;19.218;2023-02-01T05:49:09;4.14;79.51
68189;DHT22;66299;47.514;19.218;2023-02-01T05:51:37;4.32;78.77
68189;DHT22;66299;47.514;19.218;2023-02-01T05:54:09;4.32;78.73
68189;DHT22;66299;47.514;19.218;2023-02-01T05:56:39;4.21;79.24
68189;DHT22;66299;47.514;19.218;2023-02-01T05:59:09;4.25;79.15
68189;DHT22;66299;47.514;19.218;2023-02-01T06:01:41;4.35;78.82
68189;DHT22;66299;47.514;19.218;2023-02-01T06:04:10;4.42;78.98
68189;DHT22;66299;47.514;19.218;2023-02-01T06:06:38;4.26;79.50
68189;DHT22;66299;47.514;19.218;2023-02-01T06:09:06;4.01;80.59
68189;DHT22;66299;47.514;19.218;2023-02-01T06:11:35;3.84;81.77
68189;DHT22;66299;47.514;19.218;2023-02-01T06:14:03;3.67;82.68
68189;DHT22;66299;47.514;19.218;2023-02-01T06:16:35;3.83;82.00
68189;DHT22;66299;47.514;19.218;2023-02-01T06:19:05;3.73;82.73
68189;DHT22;66299;47.514;19.218;2023-02-01T06:21:35;3.84;82.44
68189;DHT22;66299;47.514;19.218;2023-02-01T06:24:08;3.90;82.67
68189;DHT22;66299;47.514;19.218;2023-02-01T06:26:37;3.85;82.32
68189;DHT22;66299;47.514;19.218;2023-02-01T06:29:07;3.98;82.08
68189;DHT22;66299;47.514;19.218;2023-02-01T06:31:37;3.95;82.27
68189;DHT22;66299;47.514;19.218;2023-02-01T06:34:09;3.95;82.34
68189;DHT22;66299;47.514;19.218;2023-02-01T06:36:39;4.06;81.72
68189;DHT22;66299;47.514;19.218;2023-02-01T06:39:08;4.26;81.12
68189;DHT22;66299;47.514;19.218;2023-02-01T06:41:38;4.05;81.78
68189;DHT22;66299;47.514;19.218;2023-02-01T06:44:07;4.23;80.84
68189;DHT22;66299;47.514;19.218;2023-02-01T06:46:39;4.33;80.55
68189;DHT22;66299;47.514;19.218;2023-02-01T06:49:11;4.42;80.11
68189;DHT22;66299;47.514;19.218;2023-02-01T06:51:42;4.36;80.22
68189;DHT22;66299;47.514;19.218;2023-02-01T06:54:18;4.32;80.48
68189;DHT22;66299;47.514;19.218;2023-02-01T06:56:49;4.15;81.43
68189;DHT22;66299;47.514;19.218;2023-02-01T06:59:21;4.12;81.86
68189;DHT22;66299;47.514;19.218;2023-02-01T07:01:53;4.15;81.75
68189;DHT22;66299;47.514;19.218;2023-02-01T07:04:26;4.23;81.60
68189;DHT22;66299;47.514;19.218;2023-02-01T07:07:01;4.22;81.82
68189;DHT22;66299;47.514;19.218;2023-02-01T07:09:31;4.23;81.99
68189;DHT22;66299;47.514;19.218;2023-02-01T07:12:00;4.32;81.49
68189;DHT22;66299;47.514;19.218;2023-02-01T07:14:32;4.32;81.56
68189;DHT22;66299;47.514;19.218;2023-02-01T07:17:00;4.39;81.26
68189;DHT22;66299;47.514;19.218;2023-02-01T07:19:34;4.48;81.14
68189;DHT22;66299;47.514;19.218;2023-02-01T07:22:03;4.45;81.23
68189;DHT22;66299;47.514;19.218;2023-02-01T07:24:32;4.48;81.02
68189;DHT22;66299;47.514;19.218;2023-02-01T07:27:08;4.54;80.80
68189;DHT22;66299;47.514;19.218;2023-02-01T07:29:41;4.54;80.74
68189;DHT22;66299;47.514;19.218;2023-02-01T07:32:11;4.57;80.78
68189;DHT22;66299;47.514;19.218;2023-02-01T07:34:43;4.54;80.84
68189;DHT22;66299;47.514;19.218;2023-02-01T07:37:13;4.64;80.52
68189;DHT22;66299;47.514;19.218;2023-02-01T07:39:46;4.63;80.75
68189;DHT22;66299;47.514;19.218;2023-02-01T07:42:20;4.69;80.51
68189;DHT22;66299;47.514;19.218;2023-02-01T07:44:53;4.69;80.49
68189;DHT22;66299;47.514;19.218;2023-02-01T07:47:24;4.76;80.46
68189;DHT22;66299;47.514;19.218;2023-02-01T07:49:56;4.79;80.28
68189;DHT22;66299;47.514;19.218;2023-02-01T07:52:32;4.88;79.95
68189;DHT22;66299;47.514;19.218;2023-02-01T07:55:04;4.95;79.39
68189;DHT22;66299;47.514;19.218;2023-02-01T07:57:38;5.01;79.26
68189;DHT22;66299;47.514;19.218;2023-02-01T08:00:08;5.04;79.15
68189;DHT22;66299;47.514;19.218;2023-02-01T08:02:58;5.08;78.92
68189;DHT22;66299;47.514;19.218;2023-02-01T08:05:30;5.14;78.87
68189;DHT22;66299;47.514;19.218;2023-02-01T08:08:05;5.11;78.36
68189;DHT22;66299;47.514;19.218;2023-02-01T08:10:39;5.02;78.97
68189;DHT22;66299;47.514;19.218;2023-02-01T08:13:13;5.01;79.10
68189;DHT22;66299;47.514;19.218;2023-02-01T08:15:43;4.91;79.48
68189;DHT22;66299;47.514;19.218;2023-02-01T08:18:13;4.98;78.72
68189;DHT22;66299;47.514;19.218;2023-02-01T08:20:50;4.97;78.72
68189;DHT22;66299;47.514;19.218;2023-02-01T08:23:21;5.02;78.42
68189;DHT22;66299;47.514;19.218;2023-02-01T08:25:51;5.10;78.08
68189;DHT22;66299;47.514;19.218;2023-02-01T08:28:22;5.17;77.55
68189;DHT22;66299;47.514;19.218;2023-02-01T08:30:52;5.28;76.66
68189;DHT22;66299;47.514;19.218;2023-02-01T08:33:23;5.34;76.87
68189;DHT22;66299;47.514;19.218;2023-02-01T08:35:55;5.38;76.50
68189;DHT22;66299;47.514;19.218;2023-02-01T08:38:26;5.45;76.60
68189;DHT22;66299;47.514;19.218;2023-02-01T08:40:57;5.49;76.27
68189;DHT22;66299;47.514;19.218;2023-02-01T08:43:33;5.53;75.92
68189;DHT22;66299;47.514;19.218;2023-02-01T08:46:04;5.52;76.16
68189;DHT22;66299;47.514;19.218;2023-02-01T08:48:39;5.48;75.97
68189;DHT22;66299;47.514;19.218;2023-02-01T08:51:11;5.52;76.14
68189;DHT22;66299;47.514;19.218;2023-02-01T08:53:42;5.56;76.24
68189;DHT22;66299;47.514;19.218;2023-02-01T08:56:14;5.65;76.14
68189;DHT22;66299;47.514;19.218;2023-02-01T08:58:47;5.79;76.10
68189;DHT22;66299;47.514;19.218;2023-02-01T09:01:19;5.89;75.24
68189;DHT22;66299;47.514;19.218;2023-02-01T09:03:48;6.01;74.86
68189;DHT22;66299;47.514;19.218;2023-02-01T09:06:21;5.94;75.02
68189;DHT22;66299;47.514;19.218;2023-02-01T09:08:53;6.03;75.13
68189;DHT22;66299;47.514;19.218;2023-02-01T09:11:24;6.03;75.40
68189;DHT22;66299;47.514;19.218;2023-02-01T09:13:53;6.24;73.83
68189;DHT22;66299;47.514;19.218;2023-02-01T09:16:22;6.35;73.48
68189;DHT22;66299;47.514;19.218;2023-02-01T09:18:52;6.32;74.05
68189;DHT22;66299;47.514;19.218;2023-02-01T09:21:49;6.17;73.77
68189;DHT22;66299;47.514;19.218;2023-02-01T09:24:23;6.42;73.27
68189;DHT22;66299;47.514;19.218;2023-02-01T09:26:54;6.55;72.47
68189;DHT22;66299;47.514;19.218;2023-02-01T09:29:27;6.34;72.76
68189;DHT22;66299;47.514;19.218;2023-02-01T09:31:57;6.71;72.16
68189;DHT22;66299;47.514;19.218;2023-02-01T09:34:33;6.94;71.19
68189;DHT22;66299;47.514;19.218;2023-02-01T09:37:04;6.96;71.47
68189;DHT22;66299;47.514;19.218;2023-02-01T09:39:33;7.04;71.39
68189;DHT22;66299;47.514;19.218;2023-02-01T09:42:10;7.10;71.54
68189;DHT22;66299;47.514;19.218;2023-02-01T09:44:52;6.90;70.61
68189;DHT22;66299;47.514;19.218;2023-02-01T09:47:29;6.83;71.24
68189;DHT22;66299;47.514;19.218;2023-02-01T09:50:05;6.64;71.23
68189;DHT22;66299;47.514;19.218;2023-02-01T09:52:40;6.48;72.01
68189;DHT22;66299;47.514;19.218;2023-02-01T09:55:16;6.50;73.12
68189;DHT22;66299;47.514;19.218;2023-02-01T09:57:53;6.38;73.41
68189;DHT22;66299;47.514;19.218;2023-02-01T10:00:30;6.07;74.44
68189;DHT22;66299;47.514;19.218;2023-02-01T10:03:04;6.03;74.72
68189;DHT22;66299;47.514;19.218;2023-02-01T10:05:47;5.91;75.70
68189;DHT22;66299;47.514;19.218;2023-02-01T10:08:31;6.10;75.93
68189;DHT22;66299;47.514;19.218;2023-02-01T10:11:12;6.34;76.07
68189;DHT22;66299;47.514;19.218;2023-02-01T10:13:53;6.53;75.51
68189;DHT22;66299;47.514;19.218;2023-02-01T10:16:33;6.25;76.00
68189;DHT22;66299;47.514;19.218;2023-02-01T10:19:29;6.38;75.72
68189;DHT22;66299;47.514;19.218;2023-02-01T10:22:05;6.45;75.13
68189;DHT22;66299;47.514;19.218;2023-02-01T10:24:53;6.56;74.78
68189;DHT22;66299;47.514;19.218;2023-02-01T10:27:32;6.50;74.70
68189;DHT22;66299;47.514;19.218;2023-02-01T10:30:19;6.39;74.84
68189;DHT22;66299;47.514;19.218;2023-02-01T10:32:56;6.11;75.29
68189;DHT22;66299;47.514;19.218;2023-02-01T10:35:27;6.29;75.37
68189;DHT22;66299;47.514;19.218;2023-02-01T10:38:00;6.25;75.40
68189;DHT22;66299;47.514;19.218;2023-02-01T10:40:32;6.31;75.44
68189;DHT22;66299;47.514;19.218;2023-02-01T10:43:07;6.31;75.53
68189;DHT22;66299;47.514;19.218;2023-02-01T10:45:38;6.17;75.75
68189;DHT22;66299;47.514;19.218;2023-02-01T10:48:14;6.31;76.03
68189;DHT22;66299;47.514;19.218;2023-02-01T10:50:49;6.75;74.81
68189;DHT22;66299;47.514;19.218;2023-02-01T10:53:25;6.59;74.80
68189;DHT22;66299;47.514;19.218;2023-02-01T10:56:06;6.46;74.98
68189;DHT22;66299;47.514;19.218;2023-02-01T10:58:43;6.25;76.16
68189;DHT22;66299;47.514;19.218;2023-02-01T11:01:20;6.31;76.05
68189;DHT22;66299;47.514;19.218;2023-02-01T11:03:55;6.24;76.39
68189;DHT22;66299;47.514;19.218;2023-02-01T11:06:28;6.53;75.51
68189;DHT22;66299;47.514;19.218;2023-02-01T11:09:08;6.42;76.13
68189;DHT22;66299;47.514;19.218;2023-02-01T11:11:56;6.61;76.04
68189;DHT22;66299;47.514;19.218;2023-02-01T11:14:35;6.44;76.35
68189;DHT22;66299;47.514;19.218;2023-02-01T11:17:28;6.55;76.13
68189;DHT22;66299;47.514;19.218;2023-02-01T11:20:05;6.66;76.29
68189;DHT22;66299;47.514;19.218;2023-02-01T11:22:45;6.61;76.07
68189;DHT22;66299;47.514;19.218;2023-02-01T11:25:17;6.66;76.05
68189;DHT22;66299;47.514;19.218;2023-02-01T11:27:49;6.92;75.27
68189;DHT22;66299;47.514;19.218;2023-02-01T11:30:34;6.97;75.19
68189;DHT22;66299;47.514;19.218;2023-02-01T11:33:10;7.06;74.82
68189;DHT22;66299;47.514;19.218;2023-02-01T11:35:48;7.38;74.07
68189;DHT22;66299;47.514;19.218;2023-02-01T11:38:23;7.50;73.48
68189;DHT22;66299;47.514;19.218;2023-02-01T11:41:11;7.58;73.65
68189;DHT22;66299;47.514;19.218;2023-02-01T11:43:56;7.45;73.77
68189;DHT22;66299;47.514;19.218;2023-02-01T11:46:31;7.50;74.16
68189;DHT22;66299;47.514;19.218;2023-02-01T11:49:20;7.14;75.37
68189;DHT22;66299;47.514;19.218;2023-02-01T11:52:05;6.94;77.76
68189;DHT22;66299;47.514;19.218;2023-02-01T11:54:52;6.68;80.53
68189;DHT22;66299;47.514;19.218;2023-02-01T11:57:37;5.94;84.16
68189;DHT22;66299;47.514;19.218;2023-02-01T12:00:27;5.91;87.08
68189;DHT22;66299;47.514;19.218;2023-02-01T12:03:14;5.56;87.88
68189;DHT22;66299;47.514;19.218;2023-02-01T12:05:55;5.59;89.00
68189;DHT22;66299;47.514;19.218;2023-02-01T12:08:39;5.66;89.62
68189;DHT22;66299;47.514;19.218;2023-02-01T12:11:30;5.45;87.57
68189;DHT22;66299;47.514;19.218;2023-02-01T12:14:13;5.43;90.82
68189;DHT22;66299;47.514;19.218;2023-02-01T12:16:55;5.34;89.61
68189;DHT22;66299;47.514;19.218;2023-02-01T12:19:41;5.55;91.60
68189;DHT22;66299;47.514;19.218;2023-02-01T12:22:25;5.48;89.64
68189;DHT22;66299;47.514;19.218;2023-02-01T12:25:20;5.22;89.64
68189;DHT22;66299;47.514;19.218;2023-02-01T12:31:06;5.25;91.67
68189;DHT22;66299;47.514;19.218;2023-02-01T12:33:55;5.01;90.93
68189;DHT22;66299;47.514;19.218;2023-02-01T12:36:32;4.94;91.83
68189;DHT22;66299;47.514;19.218;2023-02-01T12:39:12;4.87;92.27
68189;DHT22;66299;47.514;19.218;2023-02-01T12:41:50;4.73;93.57
68189;DHT22;66299;47.514;19.218;2023-02-01T12:44:29;4.56;95.03
68189;DHT22;66299;47.514;19.218;2023-02-01T12:47:05;4.36;94.49
68189;DHT22;66299;47.514;19.218;2023-02-01T12:49:45;4.01;97.13
68189;DHT22;66299;47.514;19.218;2023-02-01T12:52:21;3.83;99.99
68189;DHT22;66299;47.514;19.218;2023-02-01T12:54:58;3.74;95.79
68189;DHT22;66299;47.514;19.218;2023-02-01T12:57:32;3.74;96.56
68189;DHT22;66299;47.514;19.218;2023-02-01T13:00:12;3.90;97.32
68189;DHT22;66299;47.514;19.218;2023-02-01T13:02:47;4.02;97.73
68189;DHT22;66299;47.514;19.218;2023-02-01T13:05:21;4.06;96.72
68189;DHT22;66299;47.514;19.218;2023-02-01T13:07:57;4.08;97.45
68189;DHT22;66299;47.514;19.218;2023-02-01T13:10:32;4.12;96.78
68189;DHT22;66299;47.514;19.218;2023-02-01T13:13:11;4.32;96.93
68189;DHT22;66299;47.514;19.218;2023-02-01T13:15:44;4.41;96.60
68189;DHT22;66299;47.514;19.218;2023-02-01T13:18:17;4.59;96.23
68189;DHT22;66299;47.514;19.218;2023-02-01T13:20:54;4.74;96.75
68189;DHT22;66299;47.514;19.218;2023-02-01T13:23:27;4.77;96.90
68189;DHT22;66299;47.514;19.218;2023-02-01T13:25:58;5.07;95.86
68189;DHT22;66299;47.514;19.218;2023-02-01T13:28:31;5.35;95.71
68189;DHT22;66299;47.514;19.218;2023-02-01T13:34:52;4.98;95.37
68189;DHT22;66299;47.514;19.218;2023-02-01T13:37:41;4.71;95.94
68189;DHT22;66299;47.514;19.218;2023-02-01T13:40:35;4.60;95.45
68189;DHT22;66299;47.514;19.218;2023-02-01T13:43:09;4.54;96.58
68189;DHT22;66299;47.514;19.218;2023-02-01T13:45:45;4.45;96.07
68189;DHT22;66299;47.514;19.218;2023-02-01T13:48:20;4.36;96.60
68189;DHT22;66299;47.514;19.218;2023-02-01T13:50:53;4.41;95.95
68189;DHT22;66299;47.514;19.218;2023-02-01T13:53:25;4.28;96.54
68189;DHT22;66299;47.514;19.218;2023-02-01T13:55:59;4.31;96.23
68189;DHT22;66299;47.514;19.218;2023-02-01T13:58:32;4.23;96.93
68189;DHT22;66299;47.514;19.218;2023-02-01T14:04:45;4.19;97.53
68189;DHT22;66299;47.514;19.218;2023-02-01T14:07:21;4.26;97.06
68189;DHT22;66299;47.514;19.218;2023-02-01T14:09:52;4.53;96.63
68189;DHT22;66299;47.514;19.218;2023-02-01T14:15:24;4.94;96.59
68189;DHT22;66299;47.514;19.218;2023-02-01T14:17:54;4.84;96.32
68189;DHT22;66299;47.514;19.218;2023-02-01T14:20:43;4.60;95.99
68189;DHT22;66299;47.514;19.218;2023-02-01T14:23:25;4.41;96.78
68189;DHT22;66299;47.514;19.218;2023-02-01T14:26:21;4.19;97.65
68189;DHT22;66299;47.514;19.218;2023-02-01T14:28:57;4.28;97.32
68189;DHT22;66299;47.514;19.218;2023-02-01T14:31:40;4.08;97.40
68189;DHT22;66299;47.514;19.218;2023-02-01T14:34:24;3.27;97.24
68189;DHT22;66299;47.514;19.218;2023-02-01T14:37:04;3.18;96.66
68189;DHT22;66299;47.514;19.218;2023-02-01T14:39:38;3.15;96.43
68189;DHT22;66299;47.514;19.218;2023-02-01T14:42:21;3.02;97.56
68189;DHT22;66299;47.514;19.218;2023-02-01T14:44:52;2.92;96.66
68189;DHT22;66299;47.514;19.218;2023-02-01T14:47:29;2.88;97.17
68189;DHT22;66299;47.514;19.218;2023-02-01T14:50:13;2.88;97.15
68189;DHT22;66299;47.514;19.218;2023-02-01T14:52:46;2.92;97.11
68189;DHT22;66299;47.514;19.218;2023-02-01T14:55:18;2.98;96.59
68189;DHT22;66299;47.514;19.218;2023-02-01T14:57:52;3.04;97.20
68189;DHT22;66299;47.514;19.218;2023-02-01T15:00:25;3.23;95.42
68189;DHT22;66299;47.514;19.218;2023-02-01T15:02:56;3.30;95.78
68189;DHT22;66299;47.514;19.218;2023-02-01T15:05:32;3.25;96.72
68189;DHT22;66299;47.514;19.218;2023-02-01T15:08:07;3.29;96.55
68189;DHT22;66299;47.514;19.218;2023-02-01T15:10:44;3.36;96.02
68189;DHT22;66299;47.514;19.218;2023-02-01T15:13:23;3.39;97.09
68189;DHT22;66299;47.514;19.218;2023-02-01T15:16:13;3.73;94.50
68189;DHT22;66299;47.514;19.218;2023-02-01T15:18:42;3.75;95.77
68189;DHT22;66299;47.514;19.218;2023-02-01T15:21:16;3.81;95.78
68189;DHT22;66299;47.514;19.218;2023-02-01T15:24:10;3.90;95.01
68189;DHT22;66299;47.514;19.218;2023-02-01T15:26:42;4.09;94.30
68189;DHT22;66299;47.514;19.218;2023-02-01T15:29:14;4.18;93.24
68189;DHT22;66299;47.514;19.218;2023-02-01T15:31:44;4.06;95.07
68189;DHT22;66299;47.514;19.218;2023-02-01T15:34:13;3.97;95.30
68189;DHT22;66299;47.514;19.218;2023-02-01T15:36:44;4.23;92.94
68189;DHT22;66299;47.514;19.218;2023-02-01T15:39:29;4.26;92.36
68189;DHT22;66299;47.514;19.218;2023-02-01T15:42:01;4.19;93.15
68189;DHT22;66299;47.514;19.218;2023-02-01T15:44:38;4.31;92.85
68189;DHT22;66299;47.514;19.218;2023-02-01T15:47:13;4.29;92.88
68189;DHT22;66299;47.514;19.218;2023-02-01T15:49:45;4.21;93.17
68189;DHT22;66299;47.514;19.218;2023-02-01T15:52:18;4.21;93.29
68189;DHT22;66299;47.514;19.218;2023-02-01T15:54:52;4.15;93.10
68189;DHT22;66299;47.514;19.218;2023-02-01T15:57:24;4.21;92.47
68189;DHT22;66299;47.514;19.218;2023-02-01T16:00:03;3.98;94.66
68189;DHT22;66299;47.514;19.218;2023-02-01T16:02:40;4.01;94.18
68189;DHT22;66299;47.514;19.218;2023-02-01T16:05:29;4.01;94.36
68189;DHT22;66299;47.514;19.218;2023-02-01T16:08:04;3.99;94.70
68189;DHT22;66299;47.514;19.218;2023-02-01T16:10:42;4.22;92.66
68189;DHT22;66299;47.514;19.218;2023-02-01T16:13:13;4.16;93.68
68189;DHT22;66299;47.514;19.218;2023-02-01T16:15:44;4.38;91.79
68189;DHT22;66299;47.514;19.218;2023-02-01T16:18:13;4.29;93.11
68189;DHT22;66299;47.514;19.218;2023-02-01T16:20:45;4.33;92.87
68189;DHT22;66299;47.514;19.218;2023-02-01T16:23:20;4.64;90.67
68189;DHT22;66299;47.514;19.218;2023-02-01T16:25:50;4.56;90.80
68189;DHT22;66299;47.514;19.218;2023-02-01T16:28:19;4.48;91.48
68189;DHT22;66299;47.514;19.218;2023-02-01T16:30:49;4.54;90.92